Time;durP1;ratioP1;P1;durP2;ratioP2;P2;SDS_P1;SDS_P2;PMS_P1;PMS_P2;Temp;Humidity;BMP_temperature;BMP_pressure;BME280_temperature;BME280_humidity;BME280_pressure;Samples;Min_cycle;Max_cycle;Signal;HPM_P1;HPM_P2
2023/05/16 00:02:24;;;;;;;1999.90;999.90;;;;;;;13.76;100.00;97248.31;5030996;28;20419;-74
2023/05/16 00:04:50;;;;;;;1999.90;999.90;;;;;;;13.68;100.00;97243.72;5030979;28;20037;-74
2023/05/16 00:07:16;;;;;;;1999.90;999.90;;;;;;;13.70;100.00;97246.91;5031535;28;20030;-74
2023/05/16 00:09:41;;;;;;;1999.90;999.90;;;;;;;13.69;100.00;97242.53;5031531;28;20100;-74
2023/05/16 00:12:07;;;;;;;1999.90;999.90;;;;;;;13.70;100.00;97243.34;5031355;28;20040;-74
2023/05/16 00:14:34;;;;;;;1999.90;999.90;;;;;;;13.74;100.00;97239.63;5031701;28;20029;-73
2023/05/16 00:17:00;;;;;;;1999.90;999.90;;;;;;;13.71;100.00;97236.72;5031540;28;20026;-73
2023/05/16 00:19:26;;;;;;;1999.90;999.90;;;;;;;13.72;100.00;97241.09;5031401;28;20497;-74
2023/05/16 00:21:51;;;;;;;1999.90;999.90;;;;;;;13.75;100.00;97238.47;5031464;28;20069;-74
2023/05/16 00:24:17;;;;;;;1999.90;999.90;;;;;;;13.77;100.00;97243.63;5031040;28;20456;-74
2023/05/16 00:26:42;;;;;;;1999.90;999.90;;;;;;;13.74;100.00;97241.56;5031172;28;20029;-73
2023/05/16 00:29:08;;;;;;;1999.90;999.90;;;;;;;13.76;100.00;97240.09;5031348;28;20173;-73
2023/05/16 00:31:33;;;;;;;1999.90;999.90;;;;;;;13.82;100.00;97251.69;5031120;28;20425;-74
2023/05/16 00:33:58;;;;;;;1999.90;999.90;;;;;;;13.77;100.00;97244.44;5031199;28;20064;-73
2023/05/16 00:36:24;;;;;;;1999.90;999.90;;;;;;;13.78;100.00;97240.53;5031660;28;20040;-73
2023/05/16 00:38:49;;;;;;;1999.90;999.90;;;;;;;13.83;100.00;97243.13;5031504;28;20025;-74
2023/05/16 00:41:15;;;;;;;1999.90;999.90;;;;;;;13.80;100.00;97238.28;5031083;28;20490;-73
2023/05/16 00:43:41;;;;;;;1999.90;999.90;;;;;;;13.75;100.00;97246.72;5031036;28;20055;-74
2023/05/16 00:46:06;;;;;;;1999.90;999.90;;;;;;;13.79;100.00;97242.16;5031179;28;20071;-73
2023/05/16 00:48:32;;;;;;;1999.90;999.90;;;;;;;13.76;100.00;97245.59;5030845;28;20623;-74
2023/05/16 00:50:58;;;;;;;1999.90;999.90;;;;;;;13.72;100.00;97243.84;5030757;28;20034;-73
2023/05/16 00:53:24;;;;;;;1999.90;999.90;;;;;;;13.57;100.00;97220.47;5029502;28;20108;-73
2023/05/16 00:55:50;;;;;;;1999.90;999.90;;;;;;;13.69;100.00;97226.06;5030471;28;20037;-73
2023/05/16 00:58:16;;;;;;;1999.90;999.90;;;;;;;13.71;100.00;97223.00;5032170;28;20569;-73
2023/05/16 01:00:44;;;;;;;1999.90;999.90;;;;;;;13.73;100.00;97224.25;5030746;28;20049;-73
2023/05/16 01:03:10;;;;;;;1999.90;999.90;;;;;;;13.75;100.00;97213.72;5031520;28;20029;-73
2023/05/16 01:05:36;;;;;;;1999.90;999.90;;;;;;;13.71;100.00;97215.56;5033455;28;20029;-75
2023/05/16 01:08:01;;;;;;;1999.90;999.90;;;;;;;13.66;100.00;97210.22;5035512;28;20448;-73
2023/05/16 01:10:38;;;;;;;1999.90;999.90;;;;;;;13.35;100.00;97207.03;5030670;28;20044;-72
2023/05/16 01:13:18;;;;;;;1999.90;999.90;;;;;;;13.36;100.00;97212.22;5030581;28;20525;-72
2023/05/16 01:15:53;;;;;;;1999.90;999.90;;;;;;;13.40;100.00;97206.84;5030237;28;20065;-72
2023/05/16 01:18:36;;;;;;;1999.90;999.90;;;;;;;13.21;100.00;97203.72;5030480;28;20055;-72
2023/05/16 01:21:08;;;;;;;1999.90;999.90;;;;;;;13.10;100.00;97194.22;5030392;28;20034;-72
2023/05/16 01:24:23;;;;;;;1999.90;999.90;;;;;;;13.12;100.00;97194.72;5029705;28;20029;-72
2023/05/16 01:26:48;;;;;;;1999.90;999.90;;;;;;;13.18;100.00;97183.22;4930819;29;20481;-72
2023/05/16 01:29:14;;;;;;;1999.90;999.90;;;;;;;13.22;100.00;97188.84;5011605;28;20139;-73
2023/05/16 01:31:39;;;;;;;1999.90;999.90;;;;;;;13.17;100.00;97183.53;5033439;28;20040;-74
2023/05/16 01:34:05;;;;;;;1999.90;999.90;;;;;;;13.05;100.00;97173.25;5035592;28;20038;-73
2023/05/16 01:36:51;;;;;;;1999.90;999.90;;;;;;;13.11;100.00;97182.13;5014571;28;20071;-73
2023/05/16 01:39:25;;;;;;;1999.90;999.90;;;;;;;13.07;100.00;97176.44;5034189;28;20100;-72
2023/05/16 01:42:04;;;;;;;1999.90;999.90;;;;;;;12.99;100.00;97173.75;5035132;28;20047;-73
2023/05/16 01:44:40;;;;;;;1999.90;999.90;;;;;;;12.98;100.00;97172.13;5032722;28;20045;-73
2023/05/16 01:47:16;;;;;;;1999.90;999.90;;;;;;;12.92;100.00;97174.25;5033071;28;20038;-73
2023/05/16 01:50:18;;;;;;;1999.90;999.90;;;;;;;12.81;100.00;97176.56;5030055;28;20026;-73
2023/05/16 01:52:48;;;;;;;1999.90;999.90;;;;;;;12.82;100.00;97186.41;5030060;28;20541;-73
2023/05/16 01:55:23;;;;;;;1999.90;999.90;;;;;;;12.76;100.00;97189.66;5030092;28;20037;-73
2023/05/16 01:57:50;;;;;;;1999.90;999.90;;;;;;;12.68;100.00;97183.09;5030192;28;20040;-73
2023/05/16 02:00:15;;;;;;;1999.90;999.90;;;;;;;12.62;100.00;97181.66;5030094;28;20040;-73
2023/05/16 02:02:42;;;;;;;1999.90;999.90;;;;;;;12.51;100.00;97194.09;5030196;28;20403;-73
2023/05/16 02:05:07;;;;;;;1999.90;999.90;;;;;;;12.47;100.00;97206.84;5046578;28;20474;-73
2023/05/16 02:07:33;;;;;;;1999.90;999.90;;;;;;;12.42;100.00;97204.28;5049836;28;20033;-73
2023/05/16 02:09:58;;;;;;;1999.90;999.90;;;;;;;12.39;100.00;97193.97;5049796;28;20055;-72
2023/05/16 02:12:24;;;;;;;1999.90;999.90;;;;;;;12.39;100.00;97174.75;5050078;28;20021;-73
2023/05/16 02:14:49;;;;;;;1999.90;999.90;;;;;;;12.39;100.00;97150.06;5049582;28;20033;-72
2023/05/16 02:17:14;;;;;;;1999.90;999.90;;;;;;;12.42;100.00;97140.38;5050363;28;20366;-72
2023/05/16 02:19:40;;;;;;;1999.90;999.90;;;;;;;12.38;100.00;97148.44;5049708;28;20079;-72
2023/05/16 02:22:05;;;;;;;1999.90;999.90;;;;;;;12.39;100.00;97165.72;5049760;28;20117;-72
2023/05/16 02:24:30;;;;;;;1999.90;999.90;;;;;;;12.32;100.00;97161.53;5049653;28;20033;-72
2023/05/16 02:26:56;;;;;;;1999.90;999.90;;;;;;;12.32;100.00;97171.69;5051409;28;20028;-72
2023/05/16 02:29:21;;;;;;;1999.90;999.90;;;;;;;12.32;100.00;97160.72;5051766;28;20044;-72
2023/05/16 02:31:47;;;;;;;1999.90;999.90;;;;;;;12.25;100.00;97149.44;5039762;28;20029;-71
2023/05/16 02:34:12;;;;;;;1999.90;999.90;;;;;;;12.33;100.00;97151.38;5052776;28;20029;-71
2023/05/16 02:36:37;;;;;;;1999.90;999.90;;;;;;;12.38;100.00;97126.50;5042439;28;20022;-72
2023/05/16 02:39:03;;;;;;;1999.90;999.90;;;;;;;12.41;100.00;97120.38;5030014;28;20779;-72
2023/05/16 02:41:29;;;;;;;1999.90;999.90;;;;;;;12.36;100.00;97139.75;5012935;28;20487;-71
2023/05/16 02:43:54;;;;;;;1999.90;999.90;;;;;;;12.32;100.00;97133.31;5012894;28;20450;-71
2023/05/16 02:46:26;;;;;;;1999.90;999.90;;;;;;;12.32;100.00;97116.84;5012982;28;20096;-72
2023/05/16 02:48:52;;;;;;;1999.90;999.90;;;;;;;12.29;100.00;97095.56;5005481;28;20120;-71
2023/05/16 02:51:20;;;;;;;1999.90;999.90;;;;;;;12.31;100.00;97085.88;5032445;28;20506;-71
2023/05/16 02:53:46;;;;;;;1999.90;999.90;;;;;;;12.31;100.00;97090.56;5032389;28;20365;-72
2023/05/16 02:56:11;;;;;;;1999.90;999.90;;;;;;;12.27;100.00;97086.88;5032496;28;20029;-72
2023/05/16 02:58:36;;;;;;;1999.90;999.90;;;;;;;12.17;100.00;97077.06;5032296;28;20040;-72
2023/05/16 03:01:02;;;;;;;1999.90;999.90;;;;;;;12.25;100.00;97100.09;5032261;28;20033;-71
2023/05/16 03:03:28;;;;;;;1999.90;999.90;;;;;;;12.29;100.00;97081.88;5032347;28;20017;-71
2023/05/16 03:05:54;;;;;;;1999.90;999.90;;;;;;;12.30;100.00;97091.72;5032165;28;20036;-71
2023/05/16 03:08:19;;;;;;;1999.90;999.90;;;;;;;12.32;100.00;97090.25;5024841;28;20026;-71
2023/05/16 03:10:45;;;;;;;1999.90;999.90;;;;;;;12.15;100.00;97097.72;5012327;28;20414;-71
2023/05/16 03:13:10;;;;;;;1999.90;999.90;;;;;;;12.24;100.00;97104.00;5013347;28;20053;-72
2023/05/16 03:15:36;;;;;;;1999.90;999.90;;;;;;;12.25;100.00;97094.59;5013121;28;20032;-74
2023/05/16 03:18:01;;;;;;;1999.90;999.90;;;;;;;12.33;100.00;97091.06;5013044;28;20026;-71
2023/05/16 03:20:27;;;;;;;1999.90;999.90;;;;;;;12.32;100.00;97094.91;5012225;28;20022;-72
2023/05/16 03:22:52;;;;;;;1999.90;999.90;;;;;;;12.27;100.00;97092.38;5012228;28;20530;-71
2023/05/16 03:25:17;;;;;;;1999.90;999.90;;;;;;;12.17;100.00;97106.41;4994322;28;20052;-71
2023/05/16 03:27:42;;;;;;;1999.90;999.90;;;;;;;12.03;100.00;97114.81;5011791;28;20108;-72
2023/05/16 03:30:08;;;;;;;1999.90;999.90;;;;;;;12.03;100.00;97130.47;5014890;28;20028;-71
2023/05/16 03:32:34;;;;;;;1999.90;999.90;;;;;;;12.12;100.00;97134.00;5002757;28;20037;-71
2023/05/16 03:34:59;;;;;;;1999.90;999.90;;;;;;;12.09;100.00;97116.25;5011869;28;20018;-73
2023/05/16 03:37:25;;;;;;;1999.90;999.90;;;;;;;12.12;100.00;97131.28;5029925;28;20056;-72
2023/05/16 03:39:50;;;;;;;1999.90;999.90;;;;;;;12.13;100.00;97124.63;5031481;28;20045;-72
2023/05/16 03:42:17;;;;;;;1999.90;999.90;;;;;;;12.18;100.00;97135.44;5031446;28;20030;-72
2023/05/16 03:44:42;;;;;;;1999.90;999.90;;;;;;;12.22;100.00;97136.38;5031476;28;20498;-72
2023/05/16 03:47:08;;;;;;;1999.90;999.90;;;;;;;12.21;100.00;97151.25;5031716;28;20107;-72
2023/05/16 03:49:33;;;;;;;1999.90;999.90;;;;;;;12.13;100.00;97135.59;5013413;28;20050;-72
2023/05/16 03:51:59;;;;;;;1999.90;999.90;;;;;;;12.17;100.00;97131.09;4994187;28;20076;-72
2023/05/16 03:54:24;;;;;;;1999.90;999.90;;;;;;;12.28;100.00;97133.16;4994351;28;20026;-72
2023/05/16 03:56:49;;;;;;;1999.90;999.90;;;;;;;12.21;100.00;97132.88;4993434;28;20100;-73
2023/05/16 03:59:15;;;;;;;1999.90;999.90;;;;;;;12.15;100.00;97133.38;4994088;28;20030;-73
2023/05/16 04:01:41;;;;;;;1999.90;999.90;;;;;;;12.19;100.00;97135.13;5010957;28;20236;-72
2023/05/16 04:04:06;;;;;;;1999.90;999.90;;;;;;;12.21;100.00;97145.78;5011605;28;20453;-72
2023/05/16 04:06:33;;;;;;;1999.90;999.90;;;;;;;12.22;100.00;97155.59;5011359;28;20074;-73
2023/05/16 04:08:58;;;;;;;1999.90;999.90;;;;;;;12.21;100.00;97154.00;5011440;28;20054;-73
2023/05/16 04:11:23;;;;;;;1999.90;999.90;;;;;;;12.11;100.00;97151.59;5011462;28;20467;-71
2023/05/16 04:13:49;;;;;;;1999.90;999.90;;;;;;;11.98;100.00;97145.16;5011507;28;20080;-74
2023/05/16 04:16:14;;;;;;;1999.90;999.90;;;;;;;11.98;100.00;97134.19;5011280;28;20394;-71
2023/05/16 04:18:40;;;;;;;1999.90;999.90;;;;;;;11.95;100.00;97134.03;5011748;28;20037;-74
2023/05/16 04:21:06;;;;;;;1999.90;999.90;;;;;;;12.03;100.00;97138.72;5011226;28;20033;-73
2023/05/16 04:23:31;;;;;;;1999.90;999.90;;;;;;;12.01;100.00;97138.22;5011414;28;20030;-72
2023/05/16 04:25:58;;;;;;;1999.90;999.90;;;;;;;12.10;100.00;97147.22;5011187;28;20029;-73
2023/05/16 04:28:23;;;;;;;1999.90;999.90;;;;;;;12.14;100.00;97138.03;5019587;28;20026;-73
2023/05/16 04:30:49;;;;;;;1999.90;999.90;;;;;;;12.03;100.00;97142.22;5024983;28;20065;-73
2023/05/16 04:33:15;;;;;;;1999.90;999.90;;;;;;;12.09;100.00;97140.16;5002713;28;20478;-73
2023/05/16 04:35:40;;;;;;;1999.90;999.90;;;;;;;12.16;100.00;97135.75;5011667;28;20091;-73
2023/05/16 04:38:06;;;;;;;1999.90;999.90;;;;;;;12.28;100.00;97146.06;5022198;28;20478;-73
2023/05/16 04:40:31;;;;;;;1999.90;999.90;;;;;;;12.27;100.00;97136.25;5034808;28;21109;-72
2023/05/16 04:42:57;;;;;;;1999.90;999.90;;;;;;;12.35;100.00;97138.94;5034431;28;20113;-73
2023/05/16 04:45:22;;;;;;;1999.90;999.90;;;;;;;12.37;100.00;97140.56;5040496;28;20047;-73
2023/05/16 04:47:47;;;;;;;1999.90;999.90;;;;;;;12.30;100.00;97130.91;5036423;28;20036;-71
2023/05/16 04:50:14;;;;;;;1999.90;999.90;;;;;;;12.36;100.00;97137.00;5049066;28;20037;-71
2023/05/16 04:52:40;;;;;;;1999.90;999.90;;;;;;;12.35;100.00;97146.38;5046046;28;20032;-70
2023/05/16 04:55:05;;;;;;;1999.90;999.90;;;;;;;12.29;100.00;97136.72;5048207;28;20032;-71
2023/05/16 04:57:31;;;;;;;1999.90;999.90;;;;;;;12.38;100.00;97142.97;5049791;28;20023;-72
2023/05/16 04:59:57;;;;;;;1999.90;999.90;;;;;;;12.42;100.00;97143.94;5049849;28;20029;-71
2023/05/16 05:02:22;;;;;;;1999.90;999.90;;;;;;;12.41;100.00;97147.00;5048678;28;20041;-75
2023/05/16 05:04:48;;;;;;;1999.90;999.90;;;;;;;12.38;100.00;97153.94;5049726;28;20464;-74
2023/05/16 05:07:13;;;;;;;1999.90;999.90;;;;;;;12.37;100.00;97157.84;5049807;28;20037;-74
2023/05/16 05:09:39;;;;;;;1999.90;999.90;;;;;;;12.34;100.00;97163.97;5049663;28;20501;-74
2023/05/16 05:12:05;;;;;;;1999.90;999.90;;;;;;;12.31;100.00;97175.56;5049850;28;20059;-73
2023/05/16 05:14:31;;;;;;;1999.90;999.90;;;;;;;12.25;100.00;97171.38;5050784;28;20093;-72
2023/05/16 05:16:56;;;;;;;1999.90;999.90;;;;;;;12.35;100.00;97165.56;5032313;28;20477;-73
2023/05/16 05:19:21;;;;;;;1999.90;999.90;;;;;;;12.32;100.00;97155.25;5050526;28;20090;-73
2023/05/16 05:21:46;;;;;;;1999.90;999.90;;;;;;;12.39;100.00;97149.25;5050553;28;20036;-73
2023/05/16 05:24:12;;;;;;;1999.90;999.90;;;;;;;12.48;100.00;97128.91;5055739;28;20036;-73
2023/05/16 05:26:37;;;;;;;1999.90;999.90;;;;;;;12.44;100.00;97116.16;5051504;28;20477;-72
2023/05/16 05:29:02;;;;;;;1999.90;999.90;;;;;;;12.48;100.00;97115.19;5050149;28;20078;-73
2023/05/16 05:31:28;;;;;;;1999.90;999.90;;;;;;;12.55;100.00;97107.28;5049973;28;20549;-72
2023/05/16 05:33:55;;;;;;;1999.90;999.90;;;;;;;12.59;100.00;97091.75;5049745;28;20024;-74
2023/05/16 05:36:20;;;;;;;1999.90;999.90;;;;;;;12.77;100.00;97087.81;5049431;28;20032;-73
2023/05/16 05:38:46;;;;;;;1999.90;999.90;;;;;;;12.86;100.00;97088.56;5044418;28;20055;-72
2023/05/16 05:41:11;;;;;;;1999.90;999.90;;;;;;;12.90;100.00;97094.97;4992033;28;20033;-72
2023/05/16 05:43:36;;;;;;;1999.90;999.90;;;;;;;13.03;100.00;97097.84;5022411;28;20482;-72
2023/05/16 05:46:02;;;;;;;1999.90;999.90;;;;;;;12.98;100.00;97084.28;5031640;28;20042;-72
2023/05/16 05:48:28;;;;;;;1999.90;999.90;;;;;;;13.12;100.00;97079.41;5029538;28;20026;-72
2023/05/16 05:50:54;;;;;;;1999.90;999.90;;;;;;;13.21;100.00;97078.19;5029816;28;20120;-72
2023/05/16 05:53:20;;;;;;;1999.90;999.90;;;;;;;13.10;100.00;97082.47;5029582;28;20116;-72
2023/05/16 05:55:45;;;;;;;1999.90;999.90;;;;;;;13.05;100.00;97084.56;5029359;28;20030;-72
2023/05/16 05:58:11;;;;;;;1999.90;999.90;;;;;;;12.95;100.00;97084.94;5028519;28;20029;-72
2023/05/16 06:00:36;;;;;;;1999.90;999.90;;;;;;;12.90;100.00;97086.75;5029816;28;20499;-72
2023/05/16 06:03:02;;;;;;;1999.90;999.90;;;;;;;13.01;100.00;97078.94;5033514;28;20062;-72
2023/05/16 06:05:27;;;;;;;1999.90;999.90;;;;;;;13.01;100.00;97072.63;5032756;28;20061;-72
2023/05/16 06:07:52;;;;;;;1999.90;999.90;;;;;;;12.89;100.00;97065.94;5032872;28;20049;-72
2023/05/16 06:10:17;;;;;;;1999.90;999.90;;;;;;;12.89;100.00;97065.94;5033005;28;20131;-72
2023/05/16 06:12:43;;;;;;;1999.90;999.90;;;;;;;12.95;100.00;97069.28;5032827;28;20083;-73
2023/05/16 06:15:09;;;;;;;1999.90;999.90;;;;;;;12.96;100.00;97084.63;5032993;28;20032;-72
2023/05/16 06:17:34;;;;;;;1999.90;999.90;;;;;;;12.95;100.00;97093.19;5033362;28;20406;-72
2023/05/16 06:20:00;;;;;;;1999.90;999.90;;;;;;;12.93;100.00;97095.47;5033206;28;20025;-72
2023/05/16 06:22:25;;;;;;;1999.90;999.90;;;;;;;12.40;100.00;97083.13;5032928;28;20475;-72
2023/05/16 06:24:51;;;;;;;1999.90;999.90;;;;;;;12.59;100.00;97082.72;5028421;28;20026;-73
2023/05/16 06:27:16;;;;;;;1999.90;999.90;;;;;;;12.77;100.00;97087.81;5032217;28;20053;-72
2023/05/16 06:29:41;;;;;;;1999.90;999.90;;;;;;;12.82;100.00;97084.06;5032038;28;20116;-72
2023/05/16 06:32:07;;;;;;;1999.90;999.90;;;;;;;12.67;100.00;97092.84;5014593;28;20478;-72
2023/05/16 06:34:32;;;;;;;1999.90;999.90;;;;;;;12.78;100.00;97105.09;5032104;28;20037;-72
2023/05/16 06:36:58;;;;;;;1999.90;999.90;;;;;;;12.72;100.00;97109.91;5030163;28;20033;-72
2023/05/16 06:39:23;;;;;;;1999.90;999.90;;;;;;;12.49;100.00;97105.84;5031637;28;20163;-73
2023/05/16 06:41:50;;;;;;;1999.90;999.90;;;;;;;12.59;100.00;97099.97;5014503;28;20124;-72
2023/05/16 06:44:16;;;;;;;1999.90;999.90;;;;;;;12.60;100.00;97106.25;5031936;28;20612;-73
2023/05/16 06:46:41;;;;;;;1999.90;999.90;;;;;;;12.67;100.00;97101.88;5032059;28;20123;-72
2023/05/16 06:49:06;;;;;;;1999.90;999.90;;;;;;;12.66;100.00;97092.03;5014598;28;20133;-73
2023/05/16 06:51:32;;;;;;;1999.90;999.90;;;;;;;12.53;100.00;97084.03;5010915;28;20026;-72
2023/05/16 06:53:57;;;;;;;1999.90;999.90;;;;;;;12.71;100.00;97104.78;5000586;28;20061;-72
2023/05/16 06:56:22;;;;;;;1999.90;999.90;;;;;;;13.01;100.00;97108.31;5025853;28;20033;-72
2023/05/16 06:58:48;;;;;;;1999.90;999.90;;;;;;;13.01;100.00;97111.06;5010789;28;20037;-71
2023/05/16 07:01:14;;;;;;;1999.90;999.90;;;;;;;13.09;100.00;97113.00;5010665;28;20520;-71
2023/05/16 07:03:40;;;;;;;1999.90;999.90;;;;;;;13.03;100.00;97114.31;5020806;28;20025;-72
2023/05/16 07:06:05;;;;;;;1999.90;999.90;;;;;;;12.98;100.00;97112.53;5031371;28;20033;-72
2023/05/16 07:08:30;;;;;;;1999.90;999.90;;;;;;;12.90;100.00;97124.38;5030730;28;20471;-71
2023/05/16 07:10:56;;;;;;;1999.90;999.90;;;;;;;12.68;100.00;97128.19;5032378;28;20032;-71
2023/05/16 07:13:21;;;;;;;1999.90;999.90;;;;;;;12.72;100.00;97126.38;5030790;28;20116;-72
2023/05/16 07:15:47;;;;;;;1999.90;999.90;;;;;;;12.81;100.00;97113.44;5031210;28;20172;-71
2023/05/16 07:18:12;;;;;;;1999.90;999.90;;;;;;;12.98;100.00;97119.97;5031394;28;20033;-71
2023/05/16 07:20:37;;;;;;;1999.90;999.90;;;;;;;13.11;100.00;97128.00;5031308;28;20026;-71
2023/05/16 07:23:02;;;;;;;1999.90;999.90;;;;;;;13.02;100.00;97119.00;5031208;28;20345;-72
2023/05/16 07:25:28;;;;;;;1999.90;999.90;;;;;;;13.09;100.00;97113.00;5030688;28;20050;-71
2023/05/16 07:27:53;;;;;;;1999.90;999.90;;;;;;;12.89;100.00;97109.84;5031285;28;20026;-70
2023/05/16 07:30:20;;;;;;;1999.90;999.90;;;;;;;13.09;100.00;97091.84;5029734;28;20029;-71
2023/05/16 07:32:45;;;;;;;1999.90;999.90;;;;;;;13.08;100.00;97097.63;5032318;28;20036;-71
2023/05/16 07:35:12;;;;;;;1999.90;999.90;;;;;;;13.01;100.00;97122.06;5031248;28;20029;-71
2023/05/16 07:37:40;;;;;;;1999.90;999.90;;;;;;;13.09;100.00;97116.56;5030758;28;20021;-71
2023/05/16 07:40:06;;;;;;;1999.90;999.90;;;;;;;13.04;100.00;97126.88;5042281;28;20200;-74
2023/05/16 07:42:32;;;;;;;1999.90;999.90;;;;;;;12.86;100.00;97131.66;5050782;28;20044;-72
2023/05/16 07:44:58;;;;;;;1999.90;999.90;;;;;;;12.93;100.00;97120.16;5050943;28;20044;-71
2023/05/16 07:47:24;;;;;;;1999.90;999.90;;;;;;;12.92;100.00;97115.81;5050904;28;20104;-72
2023/05/16 07:49:49;;;;;;;1999.90;999.90;;;;;;;12.87;100.00;97098.38;5050924;28;20027;-72
2023/05/16 07:52:16;;;;;;;1999.90;999.90;;;;;;;12.99;100.00;97088.66;5050347;28;20076;-71
2023/05/16 07:54:41;;;;;;;1999.90;999.90;;;;;;;12.94;100.00;97083.38;5050686;28;20075;-71
2023/05/16 07:57:07;;;;;;;1999.90;999.90;;;;;;;12.88;100.00;97091.78;5050870;28;20545;-71
2023/05/16 07:59:32;;;;;;;1999.90;999.90;;;;;;;12.94;100.00;97099.84;5050753;28;20024;-71
2023/05/16 08:01:57;;;;;;;1999.90;999.90;;;;;;;12.93;100.00;97087.22;5050606;28;20033;-76
2023/05/16 08:04:23;;;;;;;1999.90;999.90;;;;;;;13.00;100.00;97077.31;5051297;28;20028;-71
2023/05/16 08:06:48;;;;;;;1999.90;999.90;;;;;;;12.98;100.00;97067.81;5050562;28;20120;-71
2023/05/16 08:09:14;;;;;;;1999.90;999.90;;;;;;;13.13;100.00;97064.50;5050501;28;20065;-72
2023/05/16 08:11:39;;;;;;;1999.90;999.90;;;;;;;13.27;100.00;97068.63;5051522;28;20111;-72
2023/05/16 08:14:05;;;;;;;1999.90;999.90;;;;;;;13.40;100.00;97064.00;5026499;28;20028;-71
2023/05/16 08:16:31;;;;;;;1999.90;999.90;;;;;;;13.51;100.00;97061.63;5028079;28;21315;-71
2023/05/16 08:18:56;;;;;;;1999.90;999.90;;;;;;;14.12;100.00;97037.94;5030161;28;20556;-71
2023/05/16 08:21:21;;;;;;;1999.90;999.90;;;;;;;14.84;100.00;97059.25;5030261;28;20030;-71
2023/05/16 08:23:47;;;;;;;1999.90;999.90;;;;;;;15.11;100.00;97075.06;5027078;28;20471;-72
2023/05/16 08:26:12;;;;;;;1999.90;999.90;;;;;;;15.19;100.00;97087.88;5030027;28;20034;-71
2023/05/16 08:28:37;;;;;;;1999.90;999.90;;;;;;;15.31;100.00;97092.59;5030424;28;20497;-71
2023/05/16 08:31:04;;;;;;;1999.90;999.90;;;;;;;14.89;100.00;97098.34;5030117;28;20033;-71
2023/05/16 08:33:29;;;;;;;1999.90;999.90;;;;;;;14.60;100.00;97100.53;5029399;28;20116;-71
2023/05/16 08:35:55;;;;;;;1999.90;999.90;;;;;;;14.39;100.00;97100.59;5049429;28;20116;-70
2023/05/16 08:38:20;;;;;;;1999.90;999.90;;;;;;;14.24;100.00;97082.78;5050297;28;20090;-71
2023/05/16 08:40:45;;;;;;;1999.90;999.90;;;;;;;14.31;100.00;97087.72;5049903;28;20045;-72
2023/05/16 08:43:11;;;;;;;1999.90;999.90;;;;;;;14.37;100.00;97091.88;5050149;28;20036;-71
2023/05/16 08:45:36;;;;;;;1999.90;999.90;;;;;;;14.20;100.00;97083.78;5033001;28;20048;-71
2023/05/16 08:48:04;;;;;;;1999.90;999.90;;;;;;;14.01;100.00;97094.50;5030138;28;20045;-71
2023/05/16 08:50:31;;;;;;;1999.90;999.90;;;;;;;13.90;100.00;97078.44;5029973;28;20068;-71
2023/05/16 08:53:05;;;;;;;1999.90;999.90;;;;;;;13.92;100.00;97089.88;5029852;28;20053;-71
2023/05/16 08:55:31;;;;;;;1999.90;999.90;;;;;;;13.78;100.00;97088.56;5027258;28;20037;-71
2023/05/16 08:57:58;;;;;;;1999.90;999.90;;;;;;;13.86;100.00;97083.00;5029941;28;20038;-71
2023/05/16 09:00:24;;;;;;;1999.90;999.90;;;;;;;13.98;100.00;97064.91;5030153;28;20021;-71
2023/05/16 09:02:50;;;;;;;1999.90;999.90;;;;;;;14.01;100.00;97069.75;5029880;28;20028;-71
2023/05/16 09:05:16;;;;;;;1999.90;999.90;;;;;;;14.02;100.00;97052.09;5029368;28;20030;-72
2023/05/16 09:07:43;;;;;;;1999.90;999.90;;;;;;;14.32;100.00;97061.78;5029846;28;20132;-70
2023/05/16 09:10:09;;;;;;;1999.90;999.90;;;;;;;14.47;100.00;97053.72;5029817;28;20079;-71
2023/05/16 09:12:34;;;;;;;1999.90;999.90;;;;;;;14.59;100.00;97057.63;5029759;28;20099;-72
2023/05/16 09:15:05;;;;;;;1999.90;999.90;;;;;;;14.57;100.00;97054.41;5029466;28;20470;-71
2023/05/16 09:17:40;;;;;;;1999.90;999.90;;;;;;;14.53;100.00;97054.31;5028268;28;20022;-71
2023/05/16 09:20:23;;;;;;;1999.90;999.90;;;;;;;14.58;100.00;97043.06;5029497;28;20119;-71
2023/05/16 09:22:53;;;;;;;1999.90;999.90;;;;;;;14.47;100.00;97042.69;5029441;28;20467;-71
2023/05/16 09:25:21;;;;;;;1999.90;999.90;;;;;;;14.43;100.00;97033.53;5029305;28;20035;-71
2023/05/16 09:27:47;;;;;;;1999.90;999.90;;;;;;;14.38;100.00;97022.75;5027349;28;20043;-73
2023/05/16 09:30:15;;;;;;;1999.90;999.90;;;;;;;14.33;100.00;97022.19;5049096;28;20025;-71
2023/05/16 09:32:44;;;;;;;1999.90;999.90;;;;;;;14.27;100.00;97015.25;5049445;28;20398;-71
2023/05/16 09:35:14;;;;;;;1999.90;999.90;;;;;;;14.27;100.00;97016.06;5049911;28;20084;-71
2023/05/16 09:37:44;;;;;;;1999.90;999.90;;;;;;;14.30;100.00;97017.31;5054601;28;20567;-72
2023/05/16 09:40:09;;;;;;;1999.90;999.90;;;;;;;14.27;100.00;97020.75;5055296;28;20045;-71
2023/05/16 09:42:35;;;;;;;1999.90;999.90;;;;;;;14.27;100.00;97010.56;5053454;28;20083;-72
2023/05/16 09:45:00;;;;;;;1999.90;999.90;;;;;;;14.28;100.00;97011.38;5053227;28;20120;-72
2023/05/16 09:47:26;;;;;;;1999.90;999.90;;;;;;;14.14;100.00;96997.13;5053222;28;20028;-71
2023/05/16 09:49:52;;;;;;;1999.90;999.90;;;;;;;14.14;100.00;96995.19;5046035;28;20382;-71
2023/05/16 09:52:18;;;;;;;1999.90;999.90;;;;;;;14.12;100.00;96996.69;5033368;28;20462;-72
2023/05/16 09:54:45;;;;;;;1999.90;999.90;;;;;;;14.03;100.00;96987.72;5033251;28;20029;-71
2023/05/16 09:57:11;;;;;;;1999.90;999.90;;;;;;;14.05;100.00;96983.50;5032898;28;20441;-71
2023/05/16 09:59:38;;;;;;;1999.90;999.90;;;;;;;13.98;100.00;96979.69;5030824;28;20098;-71
2023/05/16 10:02:05;;;;;;;1999.90;999.90;;;;;;;14.02;100.00;96995.16;5033143;28;20029;-73
2023/05/16 10:04:30;;;;;;;1999.90;999.90;;;;;;;13.97;100.00;96995.38;5033075;28;20014;-72
2023/05/16 10:06:57;;;;;;;1999.90;999.90;;;;;;;13.83;100.00;97001.19;5032891;28;20029;-72
2023/05/16 10:09:23;;;;;;;1999.90;999.90;;;;;;;13.77;100.00;96994.31;5032674;28;20478;-71
2023/05/16 10:11:50;;;;;;;1999.90;999.90;;;;;;;13.77;100.00;97010.81;5032885;28;20038;-71
2023/05/16 10:14:17;;;;;;;1999.90;999.90;;;;;;;13.71;100.00;96998.44;5033130;28;20116;-71
2023/05/16 10:16:46;;;;;;;1999.90;999.90;;;;;;;13.72;100.00;96989.00;5033050;28;20026;-71
2023/05/16 10:19:12;;;;;;;1999.90;999.90;;;;;;;13.73;100.00;96968.63;5032770;28;20065;-72
2023/05/16 10:21:41;;;;;;;1999.90;999.90;;;;;;;13.82;100.00;96977.59;5034511;28;20036;-72
2023/05/16 10:24:11;;;;;;;1999.90;999.90;;;;;;;13.85;100.00;96965.09;5032551;28;20037;-71
2023/05/16 10:26:37;;;;;;;1999.90;999.90;;;;;;;13.80;100.00;96979.88;5032464;28;20149;-73
2023/05/16 10:29:03;;;;;;;1999.90;999.90;;;;;;;13.62;100.00;96964.72;5032586;28;20128;-72
2023/05/16 10:31:29;;;;;;;1999.90;999.90;;;;;;;13.38;100.00;96968.19;5030557;28;20049;-71
2023/05/16 10:33:56;;;;;;;1999.90;999.90;;;;;;;13.47;100.00;96975.56;5032526;28;21082;-71
2023/05/16 10:36:21;;;;;;;1999.90;999.90;;;;;;;13.51;100.00;96987.47;5032470;28;20022;-72
2023/05/16 10:38:48;;;;;;;1999.90;999.90;;;;;;;13.53;100.00;96985.19;5032860;28;20125;-72
2023/05/16 10:41:13;;;;;;;1999.90;999.90;;;;;;;13.55;100.00;96977.41;5052364;28;20033;-72
2023/05/16 10:43:39;;;;;;;1999.90;999.90;;;;;;;13.50;100.00;96963.91;5052618;28;20055;-73
2023/05/16 10:46:08;;;;;;;1999.90;999.90;;;;;;;13.39;100.00;96949.75;5052309;28;20474;-72